createdAt,value
2023-05-14T00:01:13.284Z,5.43
2023-05-14T00:03:42.981Z,5.03
2023-05-14T00:06:11.224Z,5.17
2023-05-14T00:08:39.346Z,4.07
2023-05-14T00:11:09.132Z,4.90
2023-05-14T00:13:37.316Z,4.40
2023-05-14T00:16:05.984Z,4.57
2023-05-14T00:18:34.454Z,4.73
2023-05-14T00:21:04.159Z,4.20
2023-05-14T00:23:32.301Z,4.93
2023-05-14T00:26:00.329Z,6.57
2023-05-14T00:28:28.310Z,4.23
2023-05-14T00:30:57.348Z,5.47
2023-05-14T00:33:25.348Z,5.57
2023-05-14T00:35:53.267Z,4.63
2023-05-14T00:38:24.211Z,5.70
2023-05-14T00:40:53.986Z,4.37
2023-05-14T00:43:22.655Z,5.07
2023-05-14T00:45:52.104Z,5.50
2023-05-14T00:48:21.584Z,4.07
2023-05-14T00:50:51.097Z,3.83
2023-05-14T00:53:20.143Z,5.83
2023-05-14T00:55:51.068Z,4.10
2023-05-14T00:58:19.579Z,4.67
2023-05-14T01:00:47.787Z,4.10
2023-05-14T01:03:16.152Z,4.90
2023-05-14T01:05:55.039Z,3.80
2023-05-14T01:08:31.765Z,3.80
2023-05-14T01:11:08.240Z,4.83
2023-05-14T01:13:45.314Z,3.37
2023-05-14T01:16:14.920Z,3.67
2023-05-14T01:18:45.228Z,3.33
2023-05-14T01:21:35.536Z,3.53
2023-05-14T01:24:03.610Z,3.67
2023-05-14T01:26:32.556Z,3.37
2023-05-14T01:29:05.274Z,3.20
2023-05-14T01:31:37.607Z,4.07
2023-05-14T01:34:07.171Z,3.27
2023-05-14T01:36:37.084Z,3.50
2023-05-14T01:39:05.521Z,3.13
2023-05-14T01:41:34.702Z,3.70
2023-05-14T01:44:02.962Z,3.60
2023-05-14T01:46:32.990Z,3.30
2023-05-14T01:49:03.331Z,3.70
2023-05-14T01:51:31.780Z,3.47
2023-05-14T01:54:01.167Z,4.43
2023-05-14T01:56:29.165Z,3.60
2023-05-14T01:58:57.675Z,3.30
2023-05-14T02:01:26.352Z,3.17
2023-05-14T02:03:54.438Z,3.00
2023-05-14T02:06:22.350Z,3.00
2023-05-14T02:08:50.244Z,3.13
2023-05-14T02:11:19.780Z,3.30
2023-05-14T02:13:47.746Z,3.87
2023-05-14T02:16:15.883Z,2.87
2023-05-14T02:18:43.912Z,5.10
2023-05-14T02:21:14.178Z,4.67
2023-05-14T02:23:43.088Z,3.50
2023-05-14T02:26:11.565Z,3.63
2023-05-14T02:28:40.983Z,4.63
2023-05-14T02:31:08.973Z,3.23
2023-05-14T02:33:37.041Z,4.43
2023-05-14T02:36:05.235Z,5.53
2023-05-14T02:38:33.283Z,3.20
2023-05-14T02:41:01.165Z,2.97
2023-05-14T02:43:29.052Z,3.30
2023-05-14T02:45:58.463Z,3.40
2023-05-14T02:48:26.370Z,3.90
2023-05-14T02:50:54.292Z,3.07
2023-05-14T02:53:22.356Z,4.20
2023-05-14T02:55:50.276Z,3.67
2023-05-14T02:58:19.158Z,4.70
2023-05-14T03:00:53.335Z,3.33
2023-05-14T03:03:23.264Z,5.87
2023-05-14T03:05:52.040Z,3.93
2023-05-14T03:08:20.025Z,3.80
2023-05-14T03:10:47.930Z,6.13
2023-05-14T03:13:17.963Z,3.40
2023-05-14T03:15:47.054Z,4.00
2023-05-14T03:18:15.257Z,4.13
2023-05-14T03:20:44.726Z,3.20
2023-05-14T03:23:12.774Z,3.27
2023-05-14T03:25:40.683Z,3.07
2023-05-14T03:28:08.945Z,4.10
2023-05-14T03:30:37.261Z,3.33
2023-05-14T03:33:05.438Z,4.70
2023-05-14T03:35:33.445Z,8.67
2023-05-14T03:38:03.027Z,5.13
2023-05-14T03:40:31.140Z,4.07
2023-05-14T03:42:59.125Z,4.67
2023-05-14T03:45:28.770Z,3.43
2023-05-14T03:47:57.099Z,3.03
2023-05-14T03:50:25.761Z,3.27
2023-05-14T03:52:55.094Z,3.47
2023-05-14T03:55:24.568Z,3.87
2023-05-14T03:57:52.499Z,5.47
2023-05-14T04:00:21.522Z,3.60
2023-05-14T04:02:49.976Z,3.50
2023-05-14T04:05:18.338Z,4.57
2023-05-14T04:07:46.941Z,4.03
2023-05-14T04:10:15.255Z,5.53
2023-05-14T04:12:44.602Z,4.10
2023-05-14T04:15:13.074Z,4.63
2023-05-14T04:17:41.257Z,4.50
2023-05-14T04:20:10.127Z,8.40
2023-05-14T04:22:38.078Z,4.53
2023-05-14T04:25:06.850Z,7.70
2023-05-14T04:27:34.970Z,4.20
2023-05-14T04:30:04.840Z,4.50
2023-05-14T04:32:32.834Z,5.47
2023-05-14T04:35:01.280Z,5.10
2023-05-14T04:37:30.989Z,5.63
2023-05-14T04:39:59.164Z,4.37
2023-05-14T04:42:27.241Z,4.40
2023-05-14T04:44:57.322Z,5.77
2023-05-14T04:47:26.878Z,4.73
2023-05-14T04:49:56.388Z,4.67
2023-05-14T04:52:24.533Z,5.53
2023-05-14T04:54:52.551Z,4.90
2023-05-14T04:57:21.207Z,4.87
2023-05-14T04:59:49.290Z,3.77
2023-05-14T05:02:17.300Z,3.90
2023-05-14T05:04:47.218Z,3.93
2023-05-14T05:07:15.263Z,4.43
2023-05-14T05:09:44.606Z,4.53
2023-05-14T05:12:14.601Z,4.20
2023-05-14T05:14:44.999Z,5.40
2023-05-14T05:17:12.950Z,4.50
2023-05-14T05:19:44.159Z,4.87
2023-05-14T05:22:18.607Z,4.40
2023-05-14T05:24:48.020Z,6.93
2023-05-14T05:27:17.282Z,4.50
2023-05-14T05:29:46.379Z,5.97
2023-05-14T05:32:14.627Z,4.73
2023-05-14T05:34:42.707Z,5.20
2023-05-14T05:37:12.915Z,5.33
2023-05-14T05:39:42.226Z,6.63
2023-05-14T05:42:10.618Z,1.37
2023-05-14T05:44:38.526Z,1.40
2023-05-14T05:47:07.256Z,1.20
2023-05-14T05:49:36.962Z,1.07
2023-05-14T05:52:05.325Z,1.40
2023-05-14T05:54:33.415Z,2.67
2023-05-14T05:57:02.898Z,1.13
2023-05-14T05:59:31.016Z,2.20
2023-05-14T06:01:59.029Z,1.43
2023-05-14T06:04:26.908Z,1.47
2023-05-14T06:06:55.248Z,2.13
2023-05-14T06:09:23.231Z,1.63
2023-05-14T06:11:51.189Z,1.30
2023-05-14T06:14:20.477Z,1.03
2023-05-14T06:16:48.553Z,1.10
2023-05-14T06:19:16.976Z,1.17
2023-05-14T06:21:45.103Z,1.53
2023-05-14T06:24:13.404Z,1.30
2023-05-14T06:26:41.279Z,1.17
2023-05-14T06:29:09.243Z,1.23
2023-05-14T06:31:38.817Z,1.43
2023-05-14T06:34:06.838Z,5.33
2023-05-14T06:36:35.232Z,1.90
2023-05-14T06:39:03.742Z,4.53
2023-05-14T06:41:31.688Z,3.60
2023-05-14T06:43:59.702Z,1.57
2023-05-14T06:46:27.709Z,2.80
2023-05-14T06:48:59.332Z,2.00
2023-05-14T06:51:27.716Z,2.20
2023-05-14T06:53:56.330Z,3.53
2023-05-14T06:56:24.287Z,1.37
2023-05-14T06:58:52.301Z,2.07
2023-05-14T07:01:21.448Z,1.30
2023-05-14T07:03:49.595Z,1.50
2023-05-14T07:06:18.992Z,2.30
2023-05-14T07:08:47.077Z,2.60
2023-05-14T07:11:15.549Z,1.50
2023-05-14T07:13:44.222Z,2.00
2023-05-14T07:16:12.143Z,2.23
2023-05-14T07:18:40.365Z,2.63
2023-05-14T07:21:08.363Z,2.27
2023-05-14T07:23:38.435Z,2.13
2023-05-14T07:26:06.907Z,1.30
2023-05-14T07:28:35.388Z,3.20
2023-05-14T07:31:08.994Z,1.87
2023-05-14T07:33:37.682Z,1.90
2023-05-14T07:36:06.100Z,1.80
2023-05-14T07:38:34.072Z,3.33
2023-05-14T07:41:03.486Z,1.63
2023-05-14T07:43:31.761Z,1.93
2023-05-14T07:46:18.539Z,1.30
2023-05-14T07:48:46.515Z,2.03
2023-05-14T07:51:14.540Z,1.93
2023-05-14T07:53:42.502Z,2.60
2023-05-14T07:56:12.098Z,2.00
2023-05-14T07:58:40.084Z,7.07
2023-05-14T08:01:09.279Z,1.77
2023-05-14T08:03:37.323Z,2.53
2023-05-14T08:06:05.515Z,2.03
2023-05-14T08:08:33.571Z,3.40
2023-05-14T08:11:01.745Z,1.97
2023-05-14T08:13:31.227Z,1.57
2023-05-14T08:15:59.252Z,1.73
2023-05-14T08:18:27.410Z,1.70
2023-05-14T08:20:55.519Z,1.83
2023-05-14T08:23:23.610Z,6.17
2023-05-14T08:25:51.775Z,2.07
2023-05-14T08:28:19.771Z,1.80
2023-05-14T08:30:50.384Z,1.40
2023-05-14T08:33:19.258Z,1.67
2023-05-14T08:35:47.280Z,1.40
2023-05-14T08:38:15.289Z,2.23
2023-05-14T08:40:44.356Z,3.87
2023-05-14T08:43:13.994Z,1.23
2023-05-14T08:45:42.532Z,2.17
2023-05-14T08:52:23.719Z,2.27
2023-05-14T09:03:15.485Z,1.23
2023-05-14T09:05:43.647Z,1.83
2023-05-14T09:08:13.556Z,3.40
2023-05-14T09:10:50.774Z,1.87
2023-05-14T09:13:43.253Z,1.93
2023-05-14T09:16:11.629Z,1.50
2023-05-14T09:18:44.804Z,2.20
2023-05-14T09:21:16.845Z,1.97
2023-05-14T09:24:03.648Z,1.73
2023-05-14T09:26:34.131Z,4.80
2023-05-14T09:29:03.755Z,2.00
2023-05-14T09:31:32.781Z,1.60
2023-05-14T09:34:02.355Z,1.60
2023-05-14T09:36:31.804Z,1.77
2023-05-14T09:39:13.789Z,3.20
2023-05-14T09:41:41.837Z,3.27
2023-05-14T09:44:09.860Z,2.10
2023-05-14T09:46:38.202Z,3.17
2023-05-14T09:49:06.139Z,1.47
2023-05-14T09:51:34.144Z,1.63
2023-05-14T09:54:06.187Z,1.47
2023-05-14T09:56:34.731Z,1.40
2023-05-14T09:59:03.161Z,1.80
2023-05-14T10:01:33.043Z,2.00
2023-05-14T10:04:01.596Z,2.47
2023-05-14T10:06:32.856Z,2.23
2023-05-14T10:09:05.770Z,1.87
2023-05-14T10:11:40.760Z,1.77
2023-05-14T10:14:17.963Z,2.33
2023-05-14T10:16:50.673Z,3.17
2023-05-14T10:19:20.882Z,1.77
2023-05-14T10:21:54.442Z,1.90
2023-05-14T10:24:24.033Z,3.30
2023-05-14T10:26:52.130Z,1.80
2023-05-14T10:29:20.159Z,1.40
2023-05-14T10:31:50.255Z,1.87
2023-05-14T10:34:37.774Z,4.07
2023-05-14T10:37:07.703Z,2.00
2023-05-14T10:39:47.912Z,1.73
2023-05-14T10:42:19.407Z,2.10
2023-05-14T10:44:52.892Z,1.97
2023-05-14T10:47:21.464Z,1.77
2023-05-14T10:49:53.216Z,2.63
2023-05-14T10:52:22.197Z,1.73
2023-05-14T10:54:52.890Z,1.57
2023-05-14T10:57:22.192Z,2.50
2023-05-14T10:59:53.334Z,5.43
2023-05-14T11:02:24.076Z,3.10
2023-05-14T11:04:55.736Z,1.83
2023-05-14T11:07:26.469Z,1.90
2023-05-14T11:10:02.318Z,2.10
2023-05-14T11:12:31.270Z,3.33
2023-05-14T11:15:00.796Z,2.00
2023-05-14T11:17:30.039Z,2.47
2023-05-14T11:19:59.350Z,2.60
2023-05-14T11:22:27.592Z,2.10
2023-05-14T11:24:57.534Z,2.20
2023-05-14T11:27:26.395Z,2.47
2023-05-14T11:29:55.958Z,1.30
2023-05-14T11:32:24.149Z,2.00
2023-05-14T11:34:52.651Z,1.90
2023-05-14T11:37:21.188Z,2.23
2023-05-14T11:39:50.697Z,1.60
2023-05-14T11:42:20.995Z,1.80
2023-05-14T11:44:50.147Z,2.13
2023-05-14T12:39:49.682Z,1.73
2023-05-14T12:42:17.913Z,2.53
2023-05-14T12:44:45.880Z,2.00
2023-05-14T12:47:14.258Z,3.00
2023-05-14T12:49:42.465Z,1.83
2023-05-14T12:54:43.557Z,2.10
2023-05-14T12:57:15.129Z,2.10
2023-05-14T12:59:43.098Z,1.87
2023-05-14T13:02:11.334Z,2.47
2023-05-14T13:04:40.211Z,2.33
2023-05-14T13:07:08.915Z,2.33
2023-05-14T13:09:36.952Z,3.07
2023-05-14T13:12:05.476Z,1.97
2023-05-14T13:14:36.406Z,2.57
2023-05-14T13:17:05.489Z,3.97
2023-05-14T13:19:33.583Z,4.57
2023-05-14T13:22:01.585Z,2.80
2023-05-14T13:24:29.598Z,2.40
2023-05-14T13:26:57.559Z,2.50
2023-05-14T13:29:25.682Z,2.33
2023-05-14T13:31:55.120Z,2.43
2023-05-14T13:34:23.125Z,4.47
2023-05-14T13:36:51.220Z,3.33
2023-05-14T13:39:22.755Z,1.83
2023-05-14T13:41:51.751Z,2.17
2023-05-14T13:44:19.905Z,2.47
2023-05-14T13:46:47.932Z,3.13
2023-05-14T13:49:17.344Z,2.10
2023-05-14T13:51:45.446Z,2.77
2023-05-14T13:54:13.515Z,4.50
2023-05-14T13:56:41.589Z,2.20
2023-05-14T13:59:09.579Z,2.50
2023-05-14T14:01:37.594Z,4.63
2023-05-14T14:04:25.727Z,4.60
2023-05-14T14:06:55.157Z,3.87
2023-05-14T14:09:25.688Z,3.43
2023-05-14T14:11:53.822Z,2.57
2023-05-14T14:14:21.821Z,1.90
2023-05-14T14:16:49.800Z,2.73
2023-05-14T14:19:18.537Z,2.47
2023-05-14T14:21:46.721Z,2.87
2023-05-14T14:24:16.073Z,2.37
2023-05-14T14:26:44.010Z,2.47
2023-05-14T14:29:12.209Z,2.77
2023-05-14T14:31:40.398Z,2.57
2023-05-14T14:34:08.710Z,3.33
2023-05-14T14:36:36.676Z,2.53
2023-05-14T14:39:04.915Z,2.60
2023-05-14T14:41:34.757Z,2.77
2023-05-14T14:44:03.275Z,2.27
2023-05-14T14:46:31.385Z,2.20
2023-05-14T14:48:59.459Z,2.73
2023-05-14T14:51:27.589Z,2.57
2023-05-14T14:53:55.601Z,4.37
2023-05-14T14:56:23.726Z,3.50
2023-05-14T14:58:53.091Z,3.03
2023-05-14T15:01:21.512Z,3.20
2023-05-14T15:03:49.611Z,2.60
2023-05-14T15:06:17.602Z,5.50
2023-05-14T15:08:46.646Z,3.03
2023-05-14T15:11:15.676Z,3.20
2023-05-14T15:13:43.680Z,2.30
2023-05-14T15:16:13.858Z,6.53
2023-05-14T15:18:42.038Z,2.93
2023-05-14T15:21:10.120Z,2.73
2023-05-14T15:23:38.142Z,3.63
2023-05-14T15:26:06.528Z,5.10
2023-05-14T15:28:34.707Z,3.70
2023-05-14T15:31:03.962Z,4.00
2023-05-14T15:33:34.553Z,4.63
2023-05-14T15:36:02.572Z,4.03
2023-05-14T15:38:30.445Z,8.77
2023-05-14T15:40:58.417Z,4.27
2023-05-14T15:43:26.513Z,4.00
2023-05-14T15:45:54.492Z,5.13
2023-05-14T15:48:22.584Z,4.87
2023-05-14T15:50:52.763Z,2.43
2023-05-14T15:53:21.095Z,3.50
2023-05-14T15:55:49.647Z,2.43
2023-05-14T15:58:18.240Z,3.47
2023-05-14T16:00:46.175Z,2.00
2023-05-14T16:03:14.228Z,3.93
2023-05-14T16:05:42.981Z,15.97
2023-05-14T16:08:13.148Z,15.20
2023-05-14T16:10:41.316Z,16.77
2023-05-14T16:13:09.823Z,16.90
2023-05-14T16:15:37.815Z,16.87
2023-05-14T16:18:08.385Z,15.43
2023-05-14T16:20:36.382Z,16.33
2023-05-14T16:23:04.488Z,15.20
2023-05-14T16:25:34.396Z,15.20
2023-05-14T16:28:02.528Z,16.40
2023-05-14T16:30:30.585Z,16.47
2023-05-14T16:32:58.541Z,16.13
2023-05-14T16:35:26.524Z,17.40
2023-05-14T16:37:54.533Z,16.17
2023-05-14T16:40:25.622Z,16.80
2023-05-14T16:42:55.697Z,16.67
2023-05-14T16:45:24.029Z,1.83
2023-05-14T16:47:52.952Z,2.63
2023-05-14T16:50:21.709Z,2.27
2023-05-14T16:52:49.838Z,2.77
2023-05-14T16:55:19.635Z,3.27
2023-05-14T16:57:47.902Z,5.10
2023-05-14T17:00:18.368Z,2.50
2023-05-14T17:02:49.174Z,2.97
2023-05-14T17:05:17.634Z,1.90
2023-05-14T17:07:45.659Z,4.10
2023-05-14T17:10:13.747Z,1.30
2023-05-14T17:12:41.774Z,1.33
2023-05-14T17:15:11.042Z,2.80
2023-05-14T17:17:40.821Z,1.50
2023-05-14T17:20:09.872Z,1.83
2023-05-14T17:22:38.002Z,1.47
2023-05-14T17:25:07.029Z,1.87
2023-05-14T17:27:36.253Z,1.80
2023-05-14T17:30:05.017Z,1.97
2023-05-14T17:32:33.263Z,3.97
2023-05-14T17:35:02.839Z,1.97
2023-05-14T17:37:30.910Z,1.37
2023-05-14T17:39:58.902Z,1.17
2023-05-14T17:42:26.956Z,0.90
2023-05-14T17:44:55.297Z,1.30
2023-05-14T17:47:23.537Z,1.23
2023-05-14T17:49:52.106Z,3.30
2023-05-14T17:52:21.533Z,3.67
2023-05-14T17:54:49.520Z,1.00
2023-05-14T17:57:21.894Z,1.80
2023-05-14T17:59:50.085Z,1.00
2023-05-14T18:02:18.178Z,1.83
2023-05-14T18:04:46.799Z,1.33
2023-05-14T18:07:15.546Z,3.80
2023-05-14T18:09:44.994Z,1.03
2023-05-14T18:12:13.354Z,1.40
2023-05-14T18:14:43.036Z,2.30
2023-05-14T18:17:12.919Z,1.90
2023-05-14T18:19:41.836Z,1.30
2023-05-14T18:22:09.907Z,0.90
2023-05-14T18:24:38.072Z,1.77
2023-05-14T18:27:08.141Z,1.83
2023-05-14T18:29:36.181Z,2.30
2023-05-14T18:32:04.322Z,2.73
2023-05-14T18:34:32.645Z,3.60
2023-05-14T18:37:00.677Z,1.90
2023-05-14T18:39:28.723Z,1.80
2023-05-14T18:41:57.033Z,1.40
2023-05-14T18:44:26.459Z,1.80
2023-05-14T18:46:56.338Z,2.03
2023-05-14T18:49:24.592Z,2.00
2023-05-14T18:51:52.565Z,5.20
2023-05-14T18:54:21.772Z,1.63
2023-05-14T18:56:49.850Z,1.47
2023-05-14T18:59:17.918Z,1.67
2023-05-14T19:01:47.628Z,1.63
2023-05-14T19:04:15.890Z,1.53
2023-05-14T19:06:44.007Z,1.47
2023-05-14T19:09:11.962Z,1.23
2023-05-14T19:11:39.889Z,2.43
2023-05-14T19:14:08.511Z,1.10
2023-05-14T19:16:36.750Z,0.80
2023-05-14T19:19:06.336Z,1.00
2023-05-14T19:21:34.463Z,0.90
2023-05-14T19:24:02.855Z,0.90
2023-05-14T19:26:31.266Z,0.70
2023-05-14T19:28:59.343Z,0.70
2023-05-14T19:31:29.003Z,1.40
2023-05-14T19:33:57.717Z,1.10
2023-05-14T19:36:27.297Z,0.90
2023-05-14T19:38:57.669Z,1.13
2023-05-14T19:41:26.122Z,3.70
2023-05-14T19:43:54.094Z,0.70
2023-05-14T19:46:29.724Z,0.77
2023-05-14T19:48:57.717Z,0.77
2023-05-14T19:51:28.509Z,1.60
2023-05-14T19:53:56.597Z,1.27
2023-05-14T19:56:26.535Z,1.07
2023-05-14T19:58:55.461Z,1.60
2023-05-14T20:01:23.543Z,1.27
2023-05-14T20:03:53.536Z,1.43
2023-05-14T20:06:21.704Z,1.10
2023-05-14T20:08:51.755Z,1.30
2023-05-14T20:11:19.985Z,1.13
2023-05-14T20:13:48.044Z,1.67
2023-05-14T20:16:17.179Z,1.37
2023-05-14T20:18:45.799Z,2.37
2023-05-14T20:21:15.650Z,2.10
2023-05-14T20:23:43.652Z,1.07
2023-05-14T20:26:13.083Z,1.20
2023-05-14T20:28:42.192Z,1.73
2023-05-14T20:31:10.275Z,1.93
2023-05-14T20:33:38.392Z,1.90
2023-05-14T20:36:06.700Z,1.73
2023-05-14T20:38:35.374Z,1.13
2023-05-14T20:41:04.209Z,1.73
2023-05-14T20:43:33.547Z,1.53
2023-05-14T20:46:01.652Z,2.03
2023-05-14T20:48:30.178Z,1.70
2023-05-14T20:50:58.180Z,2.13
2023-05-14T20:53:28.341Z,2.00
2023-05-14T20:55:57.113Z,2.80
2023-05-14T20:58:27.323Z,2.17
2023-05-14T21:01:00.437Z,1.77
2023-05-14T21:03:31.462Z,1.20
2023-05-14T21:06:00.684Z,2.67
2023-05-14T21:08:28.930Z,2.40
2023-05-14T21:10:57.192Z,2.60
2023-05-14T21:13:25.108Z,3.40
2023-05-14T21:15:53.120Z,1.43
2023-05-14T21:18:22.572Z,2.43
2023-05-14T21:20:50.986Z,1.70
2023-05-14T21:23:19.847Z,2.10
2023-05-14T21:25:50.019Z,1.50
2023-05-14T21:28:18.097Z,2.03
2023-05-14T21:30:46.063Z,3.17
2023-05-14T21:33:14.075Z,1.27
2023-05-14T21:35:46.057Z,1.20
2023-05-14T21:38:14.172Z,2.03
2023-05-14T21:40:42.311Z,1.60
2023-05-14T21:43:10.212Z,1.80
2023-05-14T21:45:38.352Z,1.40
2023-05-14T21:48:07.123Z,3.37
2023-05-14T21:50:35.177Z,1.50
2023-05-14T21:53:04.682Z,2.50
2023-05-14T21:55:32.763Z,1.97
2023-05-14T21:58:02.682Z,1.57
2023-05-14T22:00:31.849Z,1.53
2023-05-14T22:03:00.037Z,2.00
2023-05-14T22:05:28.397Z,1.60
2023-05-14T22:07:56.545Z,1.60
2023-05-14T22:10:26.014Z,1.20
2023-05-14T22:12:53.953Z,1.60
2023-05-14T22:15:22.090Z,1.40
2023-05-14T22:17:50.098Z,1.27
2023-05-14T22:20:18.267Z,1.60
2023-05-14T22:22:46.304Z,1.73
2023-05-14T22:25:14.277Z,1.77
2023-05-14T22:27:43.541Z,1.67
2023-05-14T22:30:12.153Z,2.00
2023-05-14T22:32:40.094Z,1.80
2023-05-14T22:35:08.637Z,1.87
2023-05-14T22:37:36.676Z,1.13
2023-05-14T22:40:06.298Z,1.80
2023-05-14T22:42:34.653Z,1.80
2023-05-14T22:45:04.190Z,1.17
2023-05-14T22:47:32.294Z,1.20
2023-05-14T22:50:00.226Z,1.60
2023-05-14T22:52:28.246Z,1.60
2023-05-14T22:54:56.159Z,1.30
2023-05-14T22:57:24.101Z,2.13
2023-05-14T22:59:52.061Z,1.57
2023-05-14T23:02:21.663Z,0.90
2023-05-14T23:04:49.637Z,1.30
2023-05-14T23:07:17.901Z,1.33
2023-05-14T23:09:45.840Z,1.40
2023-05-14T23:12:13.814Z,1.40
2023-05-14T23:14:42.171Z,1.50
2023-05-14T23:17:10.185Z,2.90
2023-05-14T23:19:39.687Z,1.57
2023-05-14T23:22:07.678Z,1.27
2023-05-14T23:24:35.684Z,1.30
2023-05-14T23:27:03.801Z,0.97
2023-05-14T23:29:32.079Z,1.43
2023-05-14T23:32:00.098Z,0.80
2023-05-14T23:34:28.231Z,1.50
2023-05-14T23:36:57.563Z,1.60
2023-05-14T23:39:25.995Z,1.43
2023-05-14T23:41:54.434Z,1.20
2023-05-14T23:44:22.406Z,2.37
2023-05-14T23:46:50.751Z,1.50
2023-05-14T23:49:18.862Z,1.63
2023-05-14T23:51:46.900Z,1.37
2023-05-14T23:54:17.336Z,1.60
2023-05-14T23:56:45.450Z,1.53
2023-05-14T23:59:13.862Z,0.80
